BIKF/KEF METAR and TAF weather

Enter ICAO airport designator
Station Type Date Time Source
BIKF METAR 2024/06/15 22:30 UTC NOAA

BIKF 152230Z 32015KT CAVOK 10/06 Q1016


Station Type Date Time Source
BIKF Decoded METAR 2024/06/15 22:30 UTC NOAA

Keflavikurflugvollur, Iceland (BIKF) 63-58N 022-36W 54M
Jun 15, 2024 - 06:30 PM EDT / 2024.06.15 2230 UTC
Wind: from the NW (320 degrees) at 17 MPH (15 KT):0
Visibility: greater than 7 mile(s):0
Temperature: 50 F (10 C)
Dew Point: 42 F (6 C)
Relative Humidity: 76%
Pressure (altimeter): 30.00 in. Hg (1016 hPa)
ob: BIKF 152230Z 32015KT CAVOK 10/06 Q1016
cycle: 22

Station Type Date Time Source
BIKF TAF 2024/06/15 21:56 UTC NOAA